sensor_id;sensor_type;location;lat;lon;timestamp;P1;durP1;ratioP1;P2;durP2;ratioP2
5612;SDS011;63463;53.586;9.928;2022-11-24T00:00:27;12.27;;;9.73;;
5612;SDS011;63463;53.586;9.928;2022-11-24T00:02:53;24.53;;;10.50;;
5612;SDS011;63463;53.586;9.928;2022-11-24T00:05:19;14.07;;;8.90;;
5612;SDS011;63463;53.586;9.928;2022-11-24T00:07:45;9.13;;;8.23;;
5612;SDS011;63463;53.586;9.928;2022-11-24T00:10:11;13.10;;;8.17;;
5612;SDS011;63463;53.586;9.928;2022-11-24T00:12:37;11.20;;;8.17;;
5612;SDS011;63463;53.586;9.928;2022-11-24T00:15:03;16.10;;;8.60;;
5612;SDS011;63463;53.586;9.928;2022-11-24T00:17:29;16.07;;;8.27;;
5612;SDS011;63463;53.586;9.928;2022-11-24T00:19:55;15.43;;;8.17;;
5612;SDS011;63463;53.586;9.928;2022-11-24T00:22:21;9.17;;;8.03;;
5612;SDS011;63463;53.586;9.928;2022-11-24T00:24:47;8.43;;;7.60;;
5612;SDS011;63463;53.586;9.928;2022-11-24T00:27:13;12.47;;;7.97;;
5612;SDS011;63463;53.586;9.928;2022-11-24T00:29:39;9.13;;;8.03;;
5612;SDS011;63463;53.586;9.928;2022-11-24T00:32:05;14.93;;;9.17;;
5612;SDS011;63463;53.586;9.928;2022-11-24T00:34:31;8.73;;;7.80;;
5612;SDS011;63463;53.586;9.928;2022-11-24T00:36:57;15.93;;;8.00;;
5612;SDS011;63463;53.586;9.928;2022-11-24T00:39:24;9.73;;;7.53;;
5612;SDS011;63463;53.586;9.928;2022-11-24T00:41:50;11.17;;;8.67;;
5612;SDS011;63463;53.586;9.928;2022-11-24T00:44:16;9.63;;;8.33;;
5612;SDS011;63463;53.586;9.928;2022-11-24T00:46:42;9.83;;;8.43;;
5612;SDS011;63463;53.586;9.928;2022-11-24T00:49:08;22.00;;;8.67;;
5612;SDS011;63463;53.586;9.928;2022-11-24T00:51:34;12.73;;;8.40;;
5612;SDS011;63463;53.586;9.928;2022-11-24T00:54:00;9.53;;;8.53;;
5612;SDS011;63463;53.586;9.928;2022-11-24T00:56:27;8.80;;;8.00;;
5612;SDS011;63463;53.586;9.928;2022-11-24T00:58:53;8.07;;;7.27;;
5612;SDS011;63463;53.586;9.928;2022-11-24T01:01:21;14.93;;;8.43;;
5612;SDS011;63463;53.586;9.928;2022-11-24T01:03:47;25.43;;;7.80;;
5612;SDS011;63463;53.586;9.928;2022-11-24T01:06:15;10.23;;;8.17;;
5612;SDS011;63463;53.586;9.928;2022-11-24T01:08:42;9.40;;;8.30;;
5612;SDS011;63463;53.586;9.928;2022-11-24T01:11:09;11.70;;;8.20;;
5612;SDS011;63463;53.586;9.928;2022-11-24T01:13:35;12.00;;;8.10;;
5612;SDS011;63463;53.586;9.928;2022-11-24T01:16:01;9.30;;;8.00;;
5612;SDS011;63463;53.586;9.928;2022-11-24T01:18:27;10.87;;;7.30;;
5612;SDS011;63463;53.586;9.928;2022-11-24T01:20:53;10.03;;;7.47;;
5612;SDS011;63463;53.586;9.928;2022-11-24T01:23:19;10.13;;;8.10;;
5612;SDS011;63463;53.586;9.928;2022-11-24T01:25:45;15.57;;;7.77;;
5612;SDS011;63463;53.586;9.928;2022-11-24T01:28:12;13.53;;;8.20;;
5612;SDS011;63463;53.586;9.928;2022-11-24T01:30:38;8.70;;;7.90;;
5612;SDS011;63463;53.586;9.928;2022-11-24T01:33:04;8.17;;;7.37;;
5612;SDS011;63463;53.586;9.928;2022-11-24T01:35:30;9.40;;;7.90;;
5612;SDS011;63463;53.586;9.928;2022-11-24T01:37:56;13.27;;;7.70;;
5612;SDS011;63463;53.586;9.928;2022-11-24T01:40:22;9.93;;;8.03;;
5612;SDS011;63463;53.586;9.928;2022-11-24T01:42:49;21.40;;;8.40;;
5612;SDS011;63463;53.586;9.928;2022-11-24T01:47:51;10.90;;;8.40;;
5612;SDS011;63463;53.586;9.928;2022-11-24T01:50:17;13.43;;;8.20;;
5612;SDS011;63463;53.586;9.928;2022-11-24T01:52:44;12.40;;;8.83;;
5612;SDS011;63463;53.586;9.928;2022-11-24T01:55:12;13.70;;;8.73;;
5612;SDS011;63463;53.586;9.928;2022-11-24T01:57:41;10.90;;;7.70;;
5612;SDS011;63463;53.586;9.928;2022-11-24T02:00:10;13.70;;;8.70;;
5612;SDS011;63463;53.586;9.928;2022-11-24T02:02:36;12.00;;;7.90;;
5612;SDS011;63463;53.586;9.928;2022-11-24T02:05:14;14.70;;;7.53;;
5612;SDS011;63463;53.586;9.928;2022-11-24T02:07:42;8.73;;;7.83;;
5612;SDS011;63463;53.586;9.928;2022-11-24T02:10:09;12.63;;;7.87;;
5612;SDS011;63463;53.586;9.928;2022-11-24T02:12:37;12.07;;;8.43;;
5612;SDS011;63463;53.586;9.928;2022-11-24T02:15:04;13.73;;;8.27;;
5612;SDS011;63463;53.586;9.928;2022-11-24T02:17:30;11.93;;;8.10;;
5612;SDS011;63463;53.586;9.928;2022-11-24T02:19:57;13.30;;;9.40;;
5612;SDS011;63463;53.586;9.928;2022-11-24T02:25:06;17.07;;;8.37;;
5612;SDS011;63463;53.586;9.928;2022-11-24T02:27:33;12.80;;;8.10;;
5612;SDS011;63463;53.586;9.928;2022-11-24T02:29:59;26.43;;;7.97;;
5612;SDS011;63463;53.586;9.928;2022-11-24T02:32:25;17.67;;;8.10;;
5612;SDS011;63463;53.586;9.928;2022-11-24T02:34:59;15.63;;;8.30;;
5612;SDS011;63463;53.586;9.928;2022-11-24T02:37:25;8.87;;;7.33;;
5612;SDS011;63463;53.586;9.928;2022-11-24T02:39:51;15.10;;;9.83;;
5612;SDS011;63463;53.586;9.928;2022-11-24T02:42:17;8.77;;;7.97;;
5612;SDS011;63463;53.586;9.928;2022-11-24T02:44:45;10.80;;;7.83;;
5612;SDS011;63463;53.586;9.928;2022-11-24T02:47:13;9.77;;;7.97;;
5612;SDS011;63463;53.586;9.928;2022-11-24T02:49:39;10.10;;;8.27;;
5612;SDS011;63463;53.586;9.928;2022-11-24T02:52:05;11.13;;;7.70;;
5612;SDS011;63463;53.586;9.928;2022-11-24T02:54:31;12.63;;;8.10;;
5612;SDS011;63463;53.586;9.928;2022-11-24T02:56:57;14.20;;;7.50;;
5612;SDS011;63463;53.586;9.928;2022-11-24T02:59:24;9.67;;;8.10;;
5612;SDS011;63463;53.586;9.928;2022-11-24T03:01:50;11.33;;;7.73;;
5612;SDS011;63463;53.586;9.928;2022-11-24T03:04:16;16.70;;;8.03;;
5612;SDS011;63463;53.586;9.928;2022-11-24T03:06:42;9.83;;;7.60;;
5612;SDS011;63463;53.586;9.928;2022-11-24T03:09:08;9.50;;;8.50;;
5612;SDS011;63463;53.586;9.928;2022-11-24T03:11:35;8.87;;;7.97;;
5612;SDS011;63463;53.586;9.928;2022-11-24T03:14:01;11.93;;;7.40;;
5612;SDS011;63463;53.586;9.928;2022-11-24T03:16:27;12.80;;;8.30;;
5612;SDS011;63463;53.586;9.928;2022-11-24T03:18:53;13.80;;;8.23;;
5612;SDS011;63463;53.586;9.928;2022-11-24T03:21:19;16.80;;;8.57;;
5612;SDS011;63463;53.586;9.928;2022-11-24T03:23:46;10.43;;;8.10;;
5612;SDS011;63463;53.586;9.928;2022-11-24T03:26:12;12.70;;;8.53;;
5612;SDS011;63463;53.586;9.928;2022-11-24T03:28:39;12.23;;;8.40;;
5612;SDS011;63463;53.586;9.928;2022-11-24T03:31:05;13.23;;;8.00;;
5612;SDS011;63463;53.586;9.928;2022-11-24T03:33:31;12.60;;;8.30;;
5612;SDS011;63463;53.586;9.928;2022-11-24T03:35:57;12.53;;;7.80;;
5612;SDS011;63463;53.586;9.928;2022-11-24T03:38:23;9.73;;;7.97;;
5612;SDS011;63463;53.586;9.928;2022-11-24T03:40:50;8.60;;;7.70;;
5612;SDS011;63463;53.586;9.928;2022-11-24T03:43:16;11.47;;;8.60;;
5612;SDS011;63463;53.586;9.928;2022-11-24T03:45:45;8.83;;;7.93;;
5612;SDS011;63463;53.586;9.928;2022-11-24T03:48:12;12.80;;;7.90;;
5612;SDS011;63463;53.586;9.928;2022-11-24T03:50:38;15.80;;;8.63;;
5612;SDS011;63463;53.586;9.928;2022-11-24T03:53:04;19.43;;;8.40;;
5612;SDS011;63463;53.586;9.928;2022-11-24T03:55:30;14.50;;;8.80;;
5612;SDS011;63463;53.586;9.928;2022-11-24T03:57:56;12.70;;;7.87;;
5612;SDS011;63463;53.586;9.928;2022-11-24T04:00:22;14.30;;;8.70;;
5612;SDS011;63463;53.586;9.928;2022-11-24T04:02:48;15.00;;;8.47;;
5612;SDS011;63463;53.586;9.928;2022-11-24T04:05:14;14.33;;;8.40;;
5612;SDS011;63463;53.586;9.928;2022-11-24T04:07:40;12.70;;;8.90;;
5612;SDS011;63463;53.586;9.928;2022-11-24T04:10:06;12.13;;;8.37;;
5612;SDS011;63463;53.586;9.928;2022-11-24T04:12:32;12.33;;;8.60;;
5612;SDS011;63463;53.586;9.928;2022-11-24T04:15:11;8.80;;;7.90;;
5612;SDS011;63463;53.586;9.928;2022-11-24T04:17:38;8.77;;;7.90;;
5612;SDS011;63463;53.586;9.928;2022-11-24T04:20:04;12.13;;;8.30;;
5612;SDS011;63463;53.586;9.928;2022-11-24T04:22:30;14.17;;;7.30;;
5612;SDS011;63463;53.586;9.928;2022-11-24T04:24:56;12.17;;;8.43;;
5612;SDS011;63463;53.586;9.928;2022-11-24T04:27:22;9.90;;;7.70;;
5612;SDS011;63463;53.586;9.928;2022-11-24T04:29:48;16.70;;;8.80;;
5612;SDS011;63463;53.586;9.928;2022-11-24T04:32:15;16.00;;;8.63;;
5612;SDS011;63463;53.586;9.928;2022-11-24T04:34:41;17.90;;;8.27;;
5612;SDS011;63463;53.586;9.928;2022-11-24T04:37:07;15.33;;;7.93;;
5612;SDS011;63463;53.586;9.928;2022-11-24T04:39:33;11.53;;;8.37;;
5612;SDS011;63463;53.586;9.928;2022-11-24T04:41:59;15.60;;;8.70;;
5612;SDS011;63463;53.586;9.928;2022-11-24T04:44:25;12.83;;;8.40;;
5612;SDS011;63463;53.586;9.928;2022-11-24T04:46:51;12.63;;;7.70;;
5612;SDS011;63463;53.586;9.928;2022-11-24T04:49:17;9.80;;;7.97;;
5612;SDS011;63463;53.586;9.928;2022-11-24T04:51:43;8.33;;;7.57;;
5612;SDS011;63463;53.586;9.928;2022-11-24T04:54:10;15.50;;;9.20;;
5612;SDS011;63463;53.586;9.928;2022-11-24T04:56:37;10.97;;;8.43;;
5612;SDS011;63463;53.586;9.928;2022-11-24T04:59:03;9.60;;;8.00;;
5612;SDS011;63463;53.586;9.928;2022-11-24T05:01:29;11.07;;;8.33;;
5612;SDS011;63463;53.586;9.928;2022-11-24T05:03:55;20.20;;;7.87;;
5612;SDS011;63463;53.586;9.928;2022-11-24T05:06:22;17.63;;;8.20;;
5612;SDS011;63463;53.586;9.928;2022-11-24T05:08:51;12.20;;;8.33;;
5612;SDS011;63463;53.586;9.928;2022-11-24T05:11:17;15.93;;;8.50;;
5612;SDS011;63463;53.586;9.928;2022-11-24T05:13:44;10.97;;;8.33;;
5612;SDS011;63463;53.586;9.928;2022-11-24T05:16:10;21.87;;;8.60;;
5612;SDS011;63463;53.586;9.928;2022-11-24T05:18:36;13.47;;;7.93;;
5612;SDS011;63463;53.586;9.928;2022-11-24T05:21:02;14.53;;;8.50;;
5612;SDS011;63463;53.586;9.928;2022-11-24T05:23:29;19.27;;;8.80;;
5612;SDS011;63463;53.586;9.928;2022-11-24T05:26:01;15.33;;;8.50;;
5612;SDS011;63463;53.586;9.928;2022-11-24T05:28:28;29.80;;;9.60;;
5612;SDS011;63463;53.586;9.928;2022-11-24T05:30:57;18.57;;;10.03;;
5612;SDS011;63463;53.586;9.928;2022-11-24T05:33:23;12.90;;;8.80;;
5612;SDS011;63463;53.586;9.928;2022-11-24T05:35:50;18.63;;;9.30;;
5612;SDS011;63463;53.586;9.928;2022-11-24T05:38:16;14.27;;;8.30;;
5612;SDS011;63463;53.586;9.928;2022-11-24T05:40:43;9.80;;;8.20;;
5612;SDS011;63463;53.586;9.928;2022-11-24T05:43:10;17.10;;;9.10;;
5612;SDS011;63463;53.586;9.928;2022-11-24T05:45:36;13.20;;;7.90;;
5612;SDS011;63463;53.586;9.928;2022-11-24T05:48:03;17.70;;;9.00;;
5612;SDS011;63463;53.586;9.928;2022-11-24T05:50:30;12.80;;;8.73;;
5612;SDS011;63463;53.586;9.928;2022-11-24T05:53:00;11.40;;;8.00;;
5612;SDS011;63463;53.586;9.928;2022-11-24T05:55:26;13.07;;;8.70;;
5612;SDS011;63463;53.586;9.928;2022-11-24T05:57:56;17.83;;;8.83;;
5612;SDS011;63463;53.586;9.928;2022-11-24T06:00:22;23.40;;;9.10;;
5612;SDS011;63463;53.586;9.928;2022-11-24T06:02:48;11.90;;;9.30;;
5612;SDS011;63463;53.586;9.928;2022-11-24T06:05:14;8.87;;;7.80;;
5612;SDS011;63463;53.586;9.928;2022-11-24T06:07:40;17.50;;;8.77;;
5612;SDS011;63463;53.586;9.928;2022-11-24T06:10:06;15.37;;;9.13;;
5612;SDS011;63463;53.586;9.928;2022-11-24T06:12:32;17.33;;;8.23;;
5612;SDS011;63463;53.586;9.928;2022-11-24T06:14:58;16.50;;;8.70;;
5612;SDS011;63463;53.586;9.928;2022-11-24T06:17:24;21.90;;;9.53;;
5612;SDS011;63463;53.586;9.928;2022-11-24T06:19:50;21.03;;;8.83;;
5612;SDS011;63463;53.586;9.928;2022-11-24T06:22:16;30.33;;;9.60;;
5612;SDS011;63463;53.586;9.928;2022-11-24T06:24:43;13.67;;;8.00;;
5612;SDS011;63463;53.586;9.928;2022-11-24T06:27:10;17.80;;;8.50;;
5612;SDS011;63463;53.586;9.928;2022-11-24T06:29:36;15.37;;;8.33;;
5612;SDS011;63463;53.586;9.928;2022-11-24T06:32:02;13.73;;;9.50;;
5612;SDS011;63463;53.586;9.928;2022-11-24T06:34:28;10.50;;;8.50;;
5612;SDS011;63463;53.586;9.928;2022-11-24T06:36:54;12.77;;;9.50;;
5612;SDS011;63463;53.586;9.928;2022-11-24T06:39:20;17.30;;;9.87;;
5612;SDS011;63463;53.586;9.928;2022-11-24T06:41:48;14.67;;;8.77;;
5612;SDS011;63463;53.586;9.928;2022-11-24T06:44:14;15.03;;;9.23;;
5612;SDS011;63463;53.586;9.928;2022-11-24T06:46:40;14.80;;;9.23;;
5612;SDS011;63463;53.586;9.928;2022-11-24T06:49:06;13.00;;;9.10;;
5612;SDS011;63463;53.586;9.928;2022-11-24T06:51:32;18.33;;;8.40;;
5612;SDS011;63463;53.586;9.928;2022-11-24T06:53:58;15.33;;;9.50;;
5612;SDS011;63463;53.586;9.928;2022-11-24T06:56:24;15.37;;;8.83;;
5612;SDS011;63463;53.586;9.928;2022-11-24T06:58:51;11.83;;;8.63;;
5612;SDS011;63463;53.586;9.928;2022-11-24T07:01:21;22.03;;;10.03;;
5612;SDS011;63463;53.586;9.928;2022-11-24T07:03:48;20.03;;;9.70;;
5612;SDS011;63463;53.586;9.928;2022-11-24T07:06:14;21.60;;;9.33;;
5612;SDS011;63463;53.586;9.928;2022-11-24T07:08:40;23.50;;;9.67;;
5612;SDS011;63463;53.586;9.928;2022-11-24T07:11:07;22.33;;;10.80;;
5612;SDS011;63463;53.586;9.928;2022-11-24T07:13:33;16.90;;;9.10;;
5612;SDS011;63463;53.586;9.928;2022-11-24T07:16:08;17.67;;;9.37;;
5612;SDS011;63463;53.586;9.928;2022-11-24T07:18:34;12.93;;;8.63;;
5612;SDS011;63463;53.586;9.928;2022-11-24T07:21:02;17.40;;;9.83;;
5612;SDS011;63463;53.586;9.928;2022-11-24T07:23:28;21.90;;;9.60;;
5612;SDS011;63463;53.586;9.928;2022-11-24T07:25:54;24.00;;;10.50;;
5612;SDS011;63463;53.586;9.928;2022-11-24T07:28:20;23.63;;;9.87;;
5612;SDS011;63463;53.586;9.928;2022-11-24T07:30:46;19.43;;;9.73;;
5612;SDS011;63463;53.586;9.928;2022-11-24T07:33:12;25.07;;;9.40;;
5612;SDS011;63463;53.586;9.928;2022-11-24T07:35:39;32.90;;;9.40;;
5612;SDS011;63463;53.586;9.928;2022-11-24T07:38:05;21.87;;;10.20;;
5612;SDS011;63463;53.586;9.928;2022-11-24T07:40:31;20.50;;;10.27;;
5612;SDS011;63463;53.586;9.928;2022-11-24T07:42:59;22.13;;;9.87;;
5612;SDS011;63463;53.586;9.928;2022-11-24T07:45:25;14.40;;;9.00;;
5612;SDS011;63463;53.586;9.928;2022-11-24T07:47:51;16.70;;;10.67;;
5612;SDS011;63463;53.586;9.928;2022-11-24T07:50:17;34.67;;;11.00;;
5612;SDS011;63463;53.586;9.928;2022-11-24T07:52:43;15.03;;;9.27;;
5612;SDS011;63463;53.586;9.928;2022-11-24T07:55:09;24.83;;;10.23;;
5612;SDS011;63463;53.586;9.928;2022-11-24T07:57:35;21.13;;;10.13;;
5612;SDS011;63463;53.586;9.928;2022-11-24T08:00:03;22.30;;;10.00;;
5612;SDS011;63463;53.586;9.928;2022-11-24T08:02:29;28.97;;;10.27;;
5612;SDS011;63463;53.586;9.928;2022-11-24T08:04:56;28.23;;;10.57;;
5612;SDS011;63463;53.586;9.928;2022-11-24T08:07:22;18.37;;;10.50;;
5612;SDS011;63463;53.586;9.928;2022-11-24T08:09:48;17.30;;;9.93;;
5612;SDS011;63463;53.586;9.928;2022-11-24T08:12:17;25.20;;;9.93;;
5612;SDS011;63463;53.586;9.928;2022-11-24T08:14:49;30.50;;;11.83;;
5612;SDS011;63463;53.586;9.928;2022-11-24T08:17:16;28.17;;;10.27;;
5612;SDS011;63463;53.586;9.928;2022-11-24T08:19:42;17.73;;;11.67;;
5612;SDS011;63463;53.586;9.928;2022-11-24T08:22:08;26.37;;;11.40;;
5612;SDS011;63463;53.586;9.928;2022-11-24T08:24:34;32.30;;;11.20;;
5612;SDS011;63463;53.586;9.928;2022-11-24T08:27:00;30.67;;;10.10;;
5612;SDS011;63463;53.586;9.928;2022-11-24T08:29:27;27.90;;;11.13;;
5612;SDS011;63463;53.586;9.928;2022-11-24T08:31:53;22.43;;;10.53;;
5612;SDS011;63463;53.586;9.928;2022-11-24T08:34:21;25.67;;;10.83;;
5612;SDS011;63463;53.586;9.928;2022-11-24T08:36:47;28.57;;;9.77;;
5612;SDS011;63463;53.586;9.928;2022-11-24T08:39:13;22.87;;;10.50;;
5612;SDS011;63463;53.586;9.928;2022-11-24T08:41:39;16.00;;;9.53;;
5612;SDS011;63463;53.586;9.928;2022-11-24T08:44:05;16.93;;;10.40;;
5612;SDS011;63463;53.586;9.928;2022-11-24T08:46:34;19.43;;;10.10;;
5612;SDS011;63463;53.586;9.928;2022-11-24T08:49:00;22.33;;;10.13;;
5612;SDS011;63463;53.586;9.928;2022-11-24T08:51:26;15.73;;;10.30;;
5612;SDS011;63463;53.586;9.928;2022-11-24T08:53:54;19.73;;;10.50;;
5612;SDS011;63463;53.586;9.928;2022-11-24T08:56:20;17.93;;;10.13;;
5612;SDS011;63463;53.586;9.928;2022-11-24T08:58:46;22.40;;;10.50;;
5612;SDS011;63463;53.586;9.928;2022-11-24T09:01:13;15.70;;;9.73;;
5612;SDS011;63463;53.586;9.928;2022-11-24T09:03:40;19.30;;;9.80;;
5612;SDS011;63463;53.586;9.928;2022-11-24T09:06:07;26.27;;;10.20;;
5612;SDS011;63463;53.586;9.928;2022-11-24T09:08:33;38.57;;;11.10;;
5612;SDS011;63463;53.586;9.928;2022-11-24T09:10:59;29.13;;;11.50;;
5612;SDS011;63463;53.586;9.928;2022-11-24T09:13:26;24.30;;;10.80;;
5612;SDS011;63463;53.586;9.928;2022-11-24T09:15:51;29.03;;;10.50;;
5612;SDS011;63463;53.586;9.928;2022-11-24T09:18:17;21.00;;;9.67;;
5612;SDS011;63463;53.586;9.928;2022-11-24T09:20:43;24.27;;;10.70;;
5612;SDS011;63463;53.586;9.928;2022-11-24T09:23:09;19.33;;;9.13;;
5612;SDS011;63463;53.586;9.928;2022-11-24T09:25:35;21.67;;;9.13;;
5612;SDS011;63463;53.586;9.928;2022-11-24T09:28:01;28.80;;;10.97;;
5612;SDS011;63463;53.586;9.928;2022-11-24T09:30:27;32.03;;;11.00;;
5612;SDS011;63463;53.586;9.928;2022-11-24T09:32:54;32.23;;;10.60;;
5612;SDS011;63463;53.586;9.928;2022-11-24T09:35:20;26.77;;;10.17;;
5612;SDS011;63463;53.586;9.928;2022-11-24T09:37:46;33.97;;;11.00;;
5612;SDS011;63463;53.586;9.928;2022-11-24T09:40:13;26.03;;;9.87;;
5612;SDS011;63463;53.586;9.928;2022-11-24T09:43:02;22.33;;;10.50;;
5612;SDS011;63463;53.586;9.928;2022-11-24T09:48:09;18.53;;;9.83;;
5612;SDS011;63463;53.586;9.928;2022-11-24T09:50:36;31.43;;;11.10;;
5612;SDS011;63463;53.586;9.928;2022-11-24T09:55:39;32.87;;;9.60;;
5612;SDS011;63463;53.586;9.928;2022-11-24T10:00:38;26.03;;;9.80;;
5612;SDS011;63463;53.586;9.928;2022-11-24T10:03:04;21.70;;;10.47;;
5612;SDS011;63463;53.586;9.928;2022-11-24T10:05:32;29.67;;;10.43;;
5612;SDS011;63463;53.586;9.928;2022-11-24T10:08:02;44.23;;;16.70;;
5612;SDS011;63463;53.586;9.928;2022-11-24T10:17:01;37.23;;;10.37;;
5612;SDS011;63463;53.586;9.928;2022-11-24T10:18:59;40.60;;;10.57;;
5612;SDS011;63463;53.586;9.928;2022-11-24T10:29:39;23.70;;;9.90;;
5612;SDS011;63463;53.586;9.928;2022-11-24T10:32:39;38.50;;;10.27;;
5612;SDS011;63463;53.586;9.928;2022-11-24T10:34:58;27.17;;;11.03;;
5612;SDS011;63463;53.586;9.928;2022-11-24T10:37:32;33.57;;;10.10;;
5612;SDS011;63463;53.586;9.928;2022-11-24T10:42:29;22.37;;;8.87;;
5612;SDS011;63463;53.586;9.928;2022-11-24T10:47:34;26.93;;;9.90;;
5612;SDS011;63463;53.586;9.928;2022-11-24T10:52:28;23.03;;;9.03;;
5612;SDS011;63463;53.586;9.928;2022-11-24T10:54:55;27.03;;;8.40;;
5612;SDS011;63463;53.586;9.928;2022-11-24T10:57:31;22.20;;;8.20;;
5612;SDS011;63463;53.586;9.928;2022-11-24T10:59:58;20.57;;;8.30;;
5612;SDS011;63463;53.586;9.928;2022-11-24T11:04:51;28.70;;;8.90;;
5612;SDS011;63463;53.586;9.928;2022-11-24T11:07:18;23.33;;;7.53;;
5612;SDS011;63463;53.586;9.928;2022-11-24T11:09:45;18.43;;;7.90;;
5612;SDS011;63463;53.586;9.928;2022-11-24T11:12:18;28.90;;;9.07;;
5612;SDS011;63463;53.586;9.928;2022-11-24T11:14:48;19.53;;;8.70;;
5612;SDS011;63463;53.586;9.928;2022-11-24T11:17:57;22.00;;;7.97;;
5612;SDS011;63463;53.586;9.928;2022-11-24T11:23:11;22.63;;;7.40;;
5612;SDS011;63463;53.586;9.928;2022-11-24T11:25:38;24.33;;;7.30;;
5612;SDS011;63463;53.586;9.928;2022-11-24T11:28:20;20.20;;;7.97;;
5612;SDS011;63463;53.586;9.928;2022-11-24T11:30:58;22.03;;;7.37;;
5612;SDS011;63463;53.586;9.928;2022-11-24T11:33:26;18.57;;;7.60;;
5612;SDS011;63463;53.586;9.928;2022-11-24T11:35:52;28.80;;;7.10;;
5612;SDS011;63463;53.586;9.928;2022-11-24T11:38:19;33.00;;;7.67;;
5612;SDS011;63463;53.586;9.928;2022-11-24T11:40:45;24.33;;;7.40;;
5612;SDS011;63463;53.586;9.928;2022-11-24T11:45:45;23.03;;;7.97;;
5612;SDS011;63463;53.586;9.928;2022-11-24T11:53:50;24.00;;;7.40;;
5612;SDS011;63463;53.586;9.928;2022-11-24T11:58:49;22.23;;;7.50;;
5612;SDS011;63463;53.586;9.928;2022-11-24T12:01:37;26.47;;;8.13;;
5612;SDS011;63463;53.586;9.928;2022-11-24T12:11:44;21.77;;;8.07;;
5612;SDS011;63463;53.586;9.928;2022-11-24T12:17:05;21.70;;;8.10;;
5612;SDS011;63463;53.586;9.928;2022-11-24T12:50:18;33.17;;;10.17;;
5612;SDS011;63463;53.586;9.928;2022-11-24T12:52:47;33.40;;;9.50;;
5612;SDS011;63463;53.586;9.928;2022-11-24T12:55:24;34.53;;;9.10;;
5612;SDS011;63463;53.586;9.928;2022-11-24T12:57:54;19.17;;;7.90;;
5612;SDS011;63463;53.586;9.928;2022-11-24T13:00:30;41.23;;;9.73;;
5612;SDS011;63463;53.586;9.928;2022-11-24T13:08:16;18.90;;;8.00;;
5612;SDS011;63463;53.586;9.928;2022-11-24T13:10:42;22.13;;;8.10;;
5612;SDS011;63463;53.586;9.928;2022-11-24T13:13:09;24.07;;;8.93;;
5612;SDS011;63463;53.586;9.928;2022-11-24T13:21:02;15.43;;;8.00;;
5612;SDS011;63463;53.586;9.928;2022-11-24T13:23:28;27.43;;;9.10;;
5612;SDS011;63463;53.586;9.928;2022-11-24T13:26:13;44.07;;;12.53;;
5612;SDS011;63463;53.586;9.928;2022-11-24T13:28:59;40.87;;;12.30;;
5612;SDS011;63463;53.586;9.928;2022-11-24T13:31:26;15.67;;;9.20;;
5612;SDS011;63463;53.586;9.928;2022-11-24T13:33:52;16.00;;;8.33;;
5612;SDS011;63463;53.586;9.928;2022-11-24T13:38:52;17.83;;;8.30;;
5612;SDS011;63463;53.586;9.928;2022-11-24T13:46:56;18.07;;;7.37;;
5612;SDS011;63463;53.586;9.928;2022-11-24T13:49:23;15.67;;;7.93;;
5612;SDS011;63463;53.586;9.928;2022-11-24T13:51:55;11.50;;;6.50;;
5612;SDS011;63463;53.586;9.928;2022-11-24T13:54:22;19.57;;;8.07;;
5612;SDS011;63463;53.586;9.928;2022-11-24T13:56:49;24.80;;;8.10;;
5612;SDS011;63463;53.586;9.928;2022-11-24T13:59:16;15.93;;;6.80;;
5612;SDS011;63463;53.586;9.928;2022-11-24T14:01:44;13.43;;;7.23;;
5612;SDS011;63463;53.586;9.928;2022-11-24T14:04:24;14.30;;;6.90;;
5612;SDS011;63463;53.586;9.928;2022-11-24T14:09:19;14.70;;;7.10;;
5612;SDS011;63463;53.586;9.928;2022-11-24T14:11:53;14.33;;;6.50;;
5612;SDS011;63463;53.586;9.928;2022-11-24T14:14:19;16.80;;;6.70;;
5612;SDS011;63463;53.586;9.928;2022-11-24T14:16:46;27.63;;;7.97;;
5612;SDS011;63463;53.586;9.928;2022-11-24T14:19:16;13.17;;;7.33;;
5612;SDS011;63463;53.586;9.928;2022-11-24T14:21:43;23.37;;;7.57;;
5612;SDS011;63463;53.586;9.928;2022-11-24T14:24:22;23.00;;;7.77;;
5612;SDS011;63463;53.586;9.928;2022-11-24T14:26:48;22.30;;;7.20;;
5612;SDS011;63463;53.586;9.928;2022-11-24T14:29:15;18.50;;;7.00;;
5612;SDS011;63463;53.586;9.928;2022-11-24T14:31:54;18.37;;;7.83;;
5612;SDS011;63463;53.586;9.928;2022-11-24T14:34:21;14.57;;;7.27;;
5612;SDS011;63463;53.586;9.928;2022-11-24T14:36:47;20.77;;;7.50;;
5612;SDS011;63463;53.586;9.928;2022-11-24T14:39:15;30.33;;;7.40;;
5612;SDS011;63463;53.586;9.928;2022-11-24T14:41:42;20.03;;;7.13;;
5612;SDS011;63463;53.586;9.928;2022-11-24T14:44:27;16.17;;;7.27;;
5612;SDS011;63463;53.586;9.928;2022-11-24T14:47:01;18.93;;;6.40;;
5612;SDS011;63463;53.586;9.928;2022-11-24T14:49:27;14.07;;;6.67;;
5612;SDS011;63463;53.586;9.928;2022-11-24T14:52:03;16.50;;;6.87;;
5612;SDS011;63463;53.586;9.928;2022-11-24T14:54:33;9.33;;;6.20;;
5612;SDS011;63463;53.586;9.928;2022-11-24T14:57:03;18.10;;;7.00;;
5612;SDS011;63463;53.586;9.928;2022-11-24T14:59:30;22.93;;;7.00;;
5612;SDS011;63463;53.586;9.928;2022-11-24T15:01:58;26.93;;;7.23;;
5612;SDS011;63463;53.586;9.928;2022-11-24T15:04:26;36.33;;;7.93;;
5612;SDS011;63463;53.586;9.928;2022-11-24T15:14:48;19.47;;;7.53;;
5612;SDS011;63463;53.586;9.928;2022-11-24T15:17:18;19.63;;;7.27;;
5612;SDS011;63463;53.586;9.928;2022-11-24T15:19:45;14.70;;;7.50;;
5612;SDS011;63463;53.586;9.928;2022-11-24T15:22:25;16.27;;;7.10;;
5612;SDS011;63463;53.586;9.928;2022-11-24T15:24:51;17.97;;;6.87;;
5612;SDS011;63463;53.586;9.928;2022-11-24T15:27:18;13.17;;;7.20;;
5612;SDS011;63463;53.586;9.928;2022-11-24T15:29:44;18.93;;;7.03;;
5612;SDS011;63463;53.586;9.928;2022-11-24T15:32:12;20.33;;;6.73;;
5612;SDS011;63463;53.586;9.928;2022-11-24T15:34:39;16.80;;;6.90;;
5612;SDS011;63463;53.586;9.928;2022-11-24T15:37:06;27.10;;;6.80;;
5612;SDS011;63463;53.586;9.928;2022-11-24T15:39:32;15.70;;;6.87;;
5612;SDS011;63463;53.586;9.928;2022-11-24T15:41:58;16.70;;;7.07;;
5612;SDS011;63463;53.586;9.928;2022-11-24T15:44:24;17.03;;;7.00;;
5612;SDS011;63463;53.586;9.928;2022-11-24T15:46:50;15.00;;;6.97;;
5612;SDS011;63463;53.586;9.928;2022-11-24T15:49:19;19.53;;;6.60;;
5612;SDS011;63463;53.586;9.928;2022-11-24T15:51:45;18.70;;;6.90;;
5612;SDS011;63463;53.586;9.928;2022-11-24T15:54:12;12.50;;;6.57;;
5612;SDS011;63463;53.586;9.928;2022-11-24T15:56:39;13.80;;;6.30;;
5612;SDS011;63463;53.586;9.928;2022-11-24T15:59:06;14.97;;;6.07;;
5612;SDS011;63463;53.586;9.928;2022-11-24T16:01:36;22.70;;;6.87;;
5612;SDS011;63463;53.586;9.928;2022-11-24T16:04:02;11.67;;;6.80;;
5612;SDS011;63463;53.586;9.928;2022-11-24T16:06:28;18.83;;;6.37;;
5612;SDS011;63463;53.586;9.928;2022-11-24T16:08:54;19.63;;;6.93;;
5612;SDS011;63463;53.586;9.928;2022-11-24T16:11:22;11.30;;;7.03;;
5612;SDS011;63463;53.586;9.928;2022-11-24T16:13:48;13.53;;;6.80;;
5612;SDS011;63463;53.586;9.928;2022-11-24T16:16:14;17.33;;;7.10;;
5612;SDS011;63463;53.586;9.928;2022-11-24T16:18:40;17.77;;;7.67;;
5612;SDS011;63463;53.586;9.928;2022-11-24T16:21:06;15.87;;;7.10;;
5612;SDS011;63463;53.586;9.928;2022-11-24T16:23:33;12.20;;;6.80;;
5612;SDS011;63463;53.586;9.928;2022-11-24T16:26:01;10.40;;;7.10;;
5612;SDS011;63463;53.586;9.928;2022-11-24T16:28:27;11.43;;;6.67;;
5612;SDS011;63463;53.586;9.928;2022-11-24T16:30:53;12.43;;;7.60;;
5612;SDS011;63463;53.586;9.928;2022-11-24T16:33:19;15.00;;;7.87;;
5612;SDS011;63463;53.586;9.928;2022-11-24T16:35:45;16.23;;;7.37;;
5612;SDS011;63463;53.586;9.928;2022-11-24T16:38:15;22.10;;;8.77;;
5612;SDS011;63463;53.586;9.928;2022-11-24T16:40:41;23.00;;;8.17;;
5612;SDS011;63463;53.586;9.928;2022-11-24T16:43:07;13.07;;;8.43;;
5612;SDS011;63463;53.586;9.928;2022-11-24T16:45:33;16.73;;;8.60;;
5612;SDS011;63463;53.586;9.928;2022-11-24T16:47:59;32.90;;;9.10;;
5612;SDS011;63463;53.586;9.928;2022-11-24T16:50:25;17.37;;;7.90;;